createdAt,value
2018-12-07T00:00:38.871Z,94.86
2018-12-07T00:01:39.302Z,94.46
2018-12-07T00:02:39.752Z,94.28
2018-12-07T00:03:40.229Z,94.36
2018-12-07T00:04:40.644Z,94.22
2018-12-07T00:05:40.951Z,94.37
2018-12-07T00:06:41.417Z,94.67
2018-12-07T00:07:42.202Z,94.63
2018-12-07T00:08:42.636Z,94.69
2018-12-07T00:09:43.116Z,94.75
2018-12-07T00:10:43.748Z,94.87
2018-12-07T00:11:44.379Z,94.87
2018-12-07T00:12:44.923Z,94.73
2018-12-07T00:13:45.263Z,94.87
2018-12-07T00:14:45.777Z,95.12
2018-12-07T00:15:46.499Z,95.04
2018-12-07T00:16:47.324Z,95.13
2018-12-07T00:17:47.872Z,95.20
2018-12-07T00:18:48.331Z,95.16
2018-12-07T00:19:48.989Z,95.03
2018-12-07T00:20:49.441Z,95.21
2018-12-07T00:21:49.911Z,95.06
2018-12-07T00:22:50.240Z,94.98
2018-12-07T00:23:50.619Z,94.88
2018-12-07T00:24:50.989Z,94.99
2018-12-07T00:25:01.047Z,94.96
2018-12-07T00:26:01.561Z,95.04
2018-12-07T00:27:02.395Z,95.03
2018-12-07T00:28:02.816Z,94.96
2018-12-07T00:29:03.394Z,94.84
2018-12-07T00:30:03.935Z,94.77
2018-12-07T00:31:04.371Z,94.95
2018-12-07T00:32:04.928Z,94.95
2018-12-07T00:33:05.618Z,95.02
2018-12-07T00:34:06.072Z,95.16
2018-12-07T00:35:06.633Z,95.12
2018-12-07T00:36:07.074Z,95.18
2018-12-07T00:37:07.470Z,95.06
2018-12-07T00:38:06.821Z,95.17
2018-12-07T00:39:08.242Z,95.29
2018-12-07T00:40:08.842Z,95.34
2018-12-07T00:41:09.308Z,95.30
2018-12-07T00:42:10.141Z,95.47
2018-12-07T00:43:10.523Z,95.26
2018-12-07T00:44:11.227Z,95.18
2018-12-07T00:45:11.782Z,95.04
2018-12-07T00:46:12.136Z,95.25
2018-12-07T00:47:12.506Z,95.20
2018-12-07T00:48:12.952Z,95.09
2018-12-07T00:49:13.225Z,95.07
2018-12-07T00:50:14.089Z,95.27
2018-12-07T00:51:14.864Z,95.35
2018-12-07T00:52:15.159Z,95.04
2018-12-07T00:53:15.484Z,94.93
2018-12-07T00:54:15.775Z,94.97
2018-12-07T00:55:16.205Z,95.08
2018-12-07T00:56:16.673Z,95.09
2018-12-07T00:57:17.053Z,94.86
2018-12-07T00:58:17.533Z,94.74
2018-12-07T00:59:17.898Z,94.77
2018-12-07T01:00:18.438Z,94.59
2018-12-07T01:01:18.867Z,94.69
2018-12-07T01:02:19.168Z,94.49
2018-12-07T01:03:19.468Z,94.37
2018-12-07T01:04:19.848Z,94.43
2018-12-07T01:05:20.398Z,94.46
2018-12-07T01:06:20.926Z,94.13
2018-12-07T01:07:21.252Z,94.29
2018-12-07T01:08:21.552Z,93.92
2018-12-07T01:09:21.858Z,94.11
2018-12-07T01:10:22.217Z,94.10
2018-12-07T01:10:30.635Z,94.18
2018-12-07T01:11:31.996Z,94.18
2018-12-07T01:12:32.398Z,94.19
2018-12-07T01:13:33.033Z,93.96
2018-12-07T01:14:33.494Z,93.96
2018-12-07T01:15:33.886Z,93.86
2018-12-07T01:16:34.278Z,94.02
2018-12-07T01:17:34.657Z,94.18
2018-12-07T01:18:35.091Z,93.89
2018-12-07T01:19:35.650Z,93.80
2018-12-07T01:20:36.027Z,93.77
2018-12-07T01:21:36.490Z,93.93
2018-12-07T01:22:36.777Z,93.91
2018-12-07T01:23:37.407Z,94.06
2018-12-07T01:24:37.765Z,93.85
2018-12-07T01:25:38.241Z,93.79
2018-12-07T01:26:39.107Z,93.52
2018-12-07T01:27:39.505Z,93.48
2018-12-07T01:28:39.871Z,93.54
2018-12-07T01:29:40.500Z,93.55
2018-12-07T01:30:39.710Z,93.55
2018-12-07T01:31:41.559Z,93.51
2018-12-07T01:32:42.963Z,93.58
2018-12-07T01:33:42.761Z,93.83
2018-12-07T01:34:43.076Z,93.73
2018-12-07T01:35:43.575Z,93.52
2018-12-07T01:36:43.931Z,93.30
2018-12-07T01:37:44.163Z,93.09
2018-12-07T01:38:44.741Z,93.28
2018-12-07T01:39:45.229Z,93.31
2018-12-07T01:40:46.088Z,93.54
2018-12-07T01:41:46.571Z,93.53
2018-12-07T01:42:46.859Z,93.39
2018-12-07T01:43:47.208Z,93.51
2018-12-07T01:44:47.626Z,93.44
2018-12-07T01:45:47.855Z,93.46
2018-12-07T01:46:48.220Z,93.43
2018-12-07T01:47:48.673Z,93.64
2018-12-07T01:48:49.028Z,93.46
2018-12-07T01:49:49.470Z,93.54
2018-12-07T01:50:49.900Z,93.40
2018-12-07T01:51:49.285Z,93.34
2018-12-07T01:52:51.014Z,93.41
2018-12-07T01:53:51.410Z,93.38
2018-12-07T01:54:00.407Z,93.66
2018-12-07T01:55:00.948Z,93.65
2018-12-07T01:56:01.295Z,93.78
2018-12-07T01:57:01.698Z,93.75
2018-12-07T01:58:02.117Z,93.85
2018-12-07T01:59:02.541Z,94.00
2018-12-07T02:00:02.910Z,94.00
2018-12-07T02:01:03.314Z,93.81
2018-12-07T02:02:03.823Z,93.77
2018-12-07T02:03:04.131Z,93.91
2018-12-07T02:04:04.766Z,93.97
2018-12-07T02:05:05.084Z,94.25
2018-12-07T02:06:08.380Z,94.18
2018-12-07T02:07:05.764Z,94.46
2018-12-07T02:08:06.088Z,94.75
2018-12-07T02:09:06.393Z,95.05
2018-12-07T02:10:06.902Z,95.04
2018-12-07T02:11:07.458Z,95.03
2018-12-07T02:12:07.833Z,95.32
2018-12-07T02:13:08.211Z,95.21
2018-12-07T02:14:08.944Z,95.16
2018-12-07T02:15:09.392Z,94.86
2018-12-07T02:16:09.792Z,95.56
2018-12-07T02:17:10.185Z,95.59
2018-12-07T02:18:10.592Z,95.47
2018-12-07T02:19:11.036Z,95.03
2018-12-07T02:20:11.326Z,95.25
2018-12-07T02:21:12.108Z,94.98
2018-12-07T02:22:12.629Z,94.25
2018-12-07T02:23:13.005Z,94.70
2018-12-07T02:24:13.492Z,94.62
2018-12-07T02:25:14.147Z,94.54
2018-12-07T02:26:14.870Z,94.27
2018-12-07T02:27:15.312Z,94.08
2018-12-07T02:28:15.924Z,94.51
2018-12-07T02:29:16.283Z,94.11
2018-12-07T02:30:15.693Z,93.47
2018-12-07T02:31:17.117Z,93.48
2018-12-07T02:32:17.866Z,94.00
2018-12-07T02:33:18.335Z,93.75
2018-12-07T02:34:18.978Z,93.83
2018-12-07T02:35:19.492Z,94.18
2018-12-07T02:36:20.164Z,93.70
2018-12-07T02:37:20.527Z,93.95
2018-12-07T02:38:20.942Z,93.60
2018-12-07T02:39:21.429Z,94.09
2018-12-07T02:39:29.710Z,94.72
2018-12-07T02:40:34.062Z,94.74
2018-12-07T02:41:31.676Z,93.96
2018-12-07T02:42:31.962Z,94.07
2018-12-07T02:43:32.442Z,94.29
2018-12-07T02:44:32.794Z,94.16
2018-12-07T02:45:33.444Z,94.25
2018-12-07T02:46:33.967Z,94.08
2018-12-07T02:47:34.187Z,94.50
2018-12-07T02:48:34.537Z,95.05
2018-12-07T02:49:34.892Z,95.04
2018-12-07T02:50:35.191Z,95.01
2018-12-07T02:51:35.659Z,94.67
2018-12-07T02:52:35.993Z,94.64
2018-12-07T02:53:36.379Z,94.29
2018-12-07T02:54:36.669Z,94.40
2018-12-07T02:55:36.910Z,94.42
2018-12-07T02:56:37.312Z,94.39
2018-12-07T02:57:37.668Z,93.99
2018-12-07T02:58:37.914Z,94.09
2018-12-07T02:59:38.260Z,94.30
2018-12-07T03:00:38.648Z,94.15
2018-12-07T03:01:37.917Z,94.15
2018-12-07T03:02:39.276Z,93.96
2018-12-07T03:03:39.574Z,93.95
2018-12-07T03:04:39.938Z,94.07
2018-12-07T03:05:40.234Z,93.91
2018-12-07T03:06:40.602Z,93.93
2018-12-07T03:07:40.990Z,93.58
2018-12-07T03:08:41.261Z,93.60
2018-12-07T03:09:41.559Z,93.50
2018-12-07T03:10:42.040Z,93.40
2018-12-07T03:11:42.455Z,93.66
2018-12-07T03:12:42.944Z,93.55
2018-12-07T03:13:43.177Z,93.33
2018-12-07T03:14:42.516Z,92.84
2018-12-07T03:15:43.821Z,92.94
2018-12-07T03:16:44.100Z,92.85
2018-12-07T03:17:44.480Z,92.81
2018-12-07T03:18:44.756Z,93.00
2018-12-07T03:19:45.149Z,92.95
2018-12-07T03:20:44.664Z,92.75
2018-12-07T03:21:46.271Z,92.50
2018-12-07T03:22:46.930Z,92.05
2018-12-07T03:23:47.214Z,92.19
2018-12-07T03:24:47.507Z,92.14
2018-12-07T03:25:47.944Z,91.23
2018-12-07T03:25:56.473Z,91.79
2018-12-07T03:26:57.704Z,91.66
2018-12-07T03:27:58.131Z,91.50
2018-12-07T03:28:58.516Z,91.62
2018-12-07T03:29:58.921Z,91.03
2018-12-07T03:30:59.260Z,91.29
2018-12-07T03:32:00.631Z,91.11
2018-12-07T03:32:59.965Z,90.52
2018-12-07T03:34:00.304Z,90.57
2018-12-07T03:35:00.807Z,90.62
2018-12-07T03:36:01.354Z,90.62
2018-12-07T03:37:01.637Z,91.06
2018-12-07T03:38:01.875Z,90.93
2018-12-07T03:39:02.184Z,91.05
2018-12-07T03:40:02.487Z,90.91
2018-12-07T03:41:02.900Z,90.55
2018-12-07T03:42:03.186Z,90.65
2018-12-07T03:43:03.635Z,90.80
2018-12-07T03:44:04.337Z,90.75
2018-12-07T03:45:04.619Z,90.71
2018-12-07T03:46:04.976Z,90.83
2018-12-07T03:47:05.434Z,91.02
2018-12-07T03:48:05.730Z,91.08
2018-12-07T03:49:06.154Z,90.71
2018-12-07T03:50:06.469Z,90.52
2018-12-07T03:51:05.825Z,90.73
2018-12-07T03:52:07.236Z,90.81
2018-12-07T03:53:06.962Z,90.52
2018-12-07T03:54:08.495Z,90.13
2018-12-07T03:55:08.767Z,90.03
2018-12-07T03:56:09.122Z,89.64
2018-12-07T03:57:09.636Z,90.00
2018-12-07T03:58:09.688Z,90.06
2018-12-07T03:59:10.047Z,89.97
2018-12-07T04:00:10.540Z,89.82
2018-12-07T04:01:11.128Z,89.57
2018-12-07T04:02:11.736Z,89.62
2018-12-07T04:03:12.088Z,89.98
2018-12-07T04:04:12.384Z,89.59
2018-12-07T04:05:12.750Z,89.61
2018-12-07T04:06:13.081Z,89.55
2018-12-07T04:07:13.360Z,89.50
2018-12-07T04:08:13.722Z,90.01
2018-12-07T04:09:14.101Z,90.34
2018-12-07T04:10:14.488Z,90.75
2018-12-07T04:11:14.987Z,90.95
2018-12-07T04:11:24.072Z,90.45
2018-12-07T04:12:24.799Z,90.47
2018-12-07T04:13:25.622Z,90.22
2018-12-07T04:14:26.423Z,90.58
2018-12-07T04:15:26.862Z,90.99
2018-12-07T04:16:27.339Z,91.55
2018-12-07T04:17:27.941Z,91.63
2018-12-07T04:18:28.514Z,91.69
2018-12-07T04:19:28.854Z,91.85
2018-12-07T04:20:29.143Z,91.78
2018-12-07T04:21:29.546Z,92.16
2018-12-07T04:22:29.834Z,92.44
2018-12-07T04:23:30.115Z,92.11
2018-12-07T04:24:30.454Z,92.40
2018-12-07T04:25:30.975Z,92.74
2018-12-07T04:26:31.497Z,92.91
2018-12-07T04:27:31.768Z,93.38
2018-12-07T04:28:32.555Z,92.50
2018-12-07T04:29:32.978Z,92.62
2018-12-07T04:30:33.454Z,92.37
2018-12-07T04:31:32.652Z,92.50
2018-12-07T04:32:33.982Z,92.71
2018-12-07T04:33:34.306Z,93.00
2018-12-07T04:34:34.600Z,92.88
2018-12-07T04:35:34.863Z,92.81
2018-12-07T04:36:35.233Z,92.87
2018-12-07T04:37:34.455Z,93.13
2018-12-07T04:38:36.220Z,93.04
2018-12-07T04:39:36.729Z,93.10
2018-12-07T04:40:37.012Z,93.39
2018-12-07T04:41:37.289Z,92.80
2018-12-07T04:42:37.584Z,92.90
2018-12-07T04:43:37.921Z,93.13
2018-12-07T04:44:38.230Z,93.34
2018-12-07T04:45:38.651Z,93.83
2018-12-07T04:46:37.875Z,93.95
2018-12-07T04:47:39.303Z,93.81
2018-12-07T04:48:39.699Z,93.85
2018-12-07T04:49:39.989Z,94.45
2018-12-07T04:50:40.316Z,93.58
2018-12-07T04:51:40.632Z,93.58
2018-12-07T04:52:40.971Z,93.66
2018-12-07T04:53:41.446Z,94.51
2018-12-07T04:54:41.799Z,94.67
2018-12-07T04:54:50.144Z,94.34
2018-12-07T04:55:51.485Z,94.40
2018-12-07T04:56:51.793Z,94.70
2018-12-07T04:57:52.204Z,94.96
2018-12-07T04:58:52.733Z,94.97
2018-12-07T04:59:53.046Z,95.02
2018-12-07T05:00:53.394Z,94.62
2018-12-07T05:01:53.808Z,94.70
2018-12-07T05:02:54.324Z,94.64
2018-12-07T05:03:54.674Z,94.71
2018-12-07T05:04:55.331Z,94.57
2018-12-07T05:05:55.779Z,94.33
2018-12-07T05:06:56.325Z,94.34
2018-12-07T05:07:56.976Z,94.31
2018-12-07T05:08:57.453Z,94.61
2018-12-07T05:09:57.754Z,94.43
2018-12-07T05:10:58.269Z,94.37
2018-12-07T05:11:58.563Z,94.15
2018-12-07T05:12:58.942Z,94.26
2018-12-07T05:13:59.348Z,93.41
2018-12-07T05:14:59.658Z,93.22
2018-12-07T05:15:59.976Z,93.08
2018-12-07T05:17:00.354Z,92.82
2018-12-07T05:18:00.618Z,93.00
2018-12-07T05:19:01.312Z,93.05
2018-12-07T05:20:01.728Z,93.24
2018-12-07T05:21:02.000Z,92.56
2018-12-07T05:22:02.303Z,92.51
2018-12-07T05:23:02.604Z,92.89
2018-12-07T05:24:03.120Z,92.82
2018-12-07T05:25:03.558Z,93.00
2018-12-07T05:26:03.854Z,93.06
2018-12-07T05:27:04.189Z,92.59
2018-12-07T05:28:04.501Z,92.42
2018-12-07T05:29:04.819Z,92.32
2018-12-07T05:30:05.200Z,91.43
2018-12-07T05:31:05.550Z,91.23
2018-12-07T05:32:06.093Z,90.33
2018-12-07T05:33:06.548Z,90.36
2018-12-07T05:34:06.900Z,89.71
2018-12-07T05:35:07.307Z,89.74
2018-12-07T05:36:07.641Z,89.74
2018-12-07T05:37:08.059Z,89.73
2018-12-07T05:38:07.616Z,89.29
2018-12-07T05:39:09.209Z,89.29
2018-12-07T05:39:17.629Z,89.59
2018-12-07T05:40:19.010Z,89.63
2018-12-07T05:41:19.330Z,89.90
2018-12-07T05:42:19.990Z,89.90
2018-12-07T05:43:20.276Z,89.75
2018-12-07T05:44:20.628Z,89.61
2018-12-07T05:45:20.907Z,90.02
2018-12-07T05:46:21.204Z,89.66
2018-12-07T05:47:21.570Z,90.13
2018-12-07T05:48:23.793Z,90.10
2018-12-07T05:49:21.560Z,89.92
2018-12-07T05:50:22.856Z,90.20
2018-12-07T05:51:23.151Z,89.45
2018-12-07T05:52:23.556Z,89.04
2018-12-07T05:53:24.132Z,88.89
2018-12-07T05:54:24.551Z,88.71
2018-12-07T05:55:24.857Z,88.41
2018-12-07T05:56:25.464Z,89.07
2018-12-07T05:57:25.825Z,89.14
2018-12-07T05:58:26.248Z,88.55
2018-12-07T05:59:26.604Z,88.57
2018-12-07T06:00:27.373Z,88.70
2018-12-07T06:01:27.654Z,89.25
2018-12-07T06:02:28.065Z,89.25
2018-12-07T06:03:28.499Z,88.99
2018-12-07T06:04:28.894Z,88.83
2018-12-07T06:05:29.298Z,88.94
2018-12-07T06:06:29.642Z,88.89
2018-12-07T06:07:29.939Z,89.16
2018-12-07T06:08:30.442Z,89.34
2018-12-07T06:09:30.764Z,89.30
2018-12-07T06:10:31.585Z,89.30
2018-12-07T06:11:32.369Z,88.37
2018-12-07T06:12:32.844Z,88.67
2018-12-07T06:13:33.308Z,89.16
2018-12-07T06:14:34.835Z,89.17
2018-12-07T06:15:33.886Z,89.28
2018-12-07T06:16:34.196Z,88.82
2018-12-07T06:17:34.849Z,88.81
2018-12-07T06:18:35.199Z,88.49
2018-12-07T06:19:35.557Z,88.24
2018-12-07T06:20:36.273Z,88.54
2018-12-07T06:21:36.603Z,88.56
2018-12-07T06:22:37.063Z,88.21
2018-12-07T06:23:38.614Z,88.17
2018-12-07T06:24:38.525Z,87.80
2018-12-07T06:24:46.908Z,88.14
2018-12-07T06:25:48.299Z,88.12
2018-12-07T06:26:47.941Z,88.48
2018-12-07T06:27:49.474Z,88.08
2018-12-07T06:28:50.033Z,88.01
2018-12-07T06:29:50.314Z,88.18
2018-12-07T06:30:50.672Z,88.37
2018-12-07T06:31:50.982Z,87.84
2018-12-07T06:32:51.509Z,87.78
2018-12-07T06:33:51.886Z,87.69
2018-12-07T06:34:52.244Z,87.95
2018-12-07T06:35:52.494Z,87.74
2018-12-07T06:36:53.045Z,87.94
2018-12-07T06:37:53.359Z,87.74
2018-12-07T06:38:53.738Z,87.39
2018-12-07T06:39:54.211Z,87.08
2018-12-07T06:40:54.625Z,86.94
2018-12-07T06:41:55.054Z,87.02
2018-12-07T06:42:55.510Z,87.02
2018-12-07T06:43:55.963Z,87.14
2018-12-07T06:44:56.342Z,87.11
2018-12-07T06:45:56.796Z,86.93
2018-12-07T06:46:57.488Z,87.05
2018-12-07T06:47:57.947Z,86.83
2018-12-07T06:48:58.280Z,86.77
2018-12-07T06:49:59.007Z,86.79
2018-12-07T06:50:59.295Z,86.92
2018-12-07T06:51:59.633Z,86.90
2018-12-07T06:52:59.919Z,86.84
2018-12-07T06:54:00.244Z,86.95
2018-12-07T06:55:00.625Z,87.37
2018-12-07T06:56:00.843Z,87.11
2018-12-07T06:57:01.115Z,86.98
2018-12-07T06:58:01.324Z,87.12
2018-12-07T06:59:01.711Z,87.09
2018-12-07T07:00:02.201Z,86.95
2018-12-07T07:01:02.399Z,87.01
2018-12-07T07:02:02.738Z,87.06
2018-12-07T07:03:02.975Z,86.79
2018-12-07T07:04:03.297Z,86.99
2018-12-07T07:05:03.612Z,87.32
2018-12-07T07:06:03.991Z,87.34
2018-12-07T07:07:05.373Z,87.28
2018-12-07T07:08:03.868Z,87.23
2018-12-07T07:09:05.274Z,87.50
2018-12-07T07:10:05.575Z,87.32
2018-12-07T07:10:13.963Z,86.90
2018-12-07T07:11:15.338Z,86.88
2018-12-07T07:12:15.707Z,86.89
2018-12-07T07:13:16.314Z,87.52
2018-12-07T07:14:16.654Z,87.50
2018-12-07T07:15:16.976Z,87.24
2018-12-07T07:16:22.935Z,87.14
2018-12-07T07:17:17.290Z,87.51
2018-12-07T07:18:18.625Z,87.58
2018-12-07T07:19:18.827Z,87.55
2018-12-07T07:20:19.160Z,87.07
2018-12-07T07:21:19.420Z,87.26
2018-12-07T07:22:19.700Z,87.66
2018-12-07T07:23:20.361Z,87.55
2018-12-07T07:24:20.767Z,87.50
2018-12-07T07:25:21.144Z,87.56
2018-12-07T07:26:21.429Z,87.08
2018-12-07T07:27:21.630Z,86.96
2018-12-07T07:28:21.672Z,87.42
2018-12-07T07:29:22.370Z,87.38
2018-12-07T07:30:22.749Z,87.48
2018-12-07T07:31:23.140Z,87.37
2018-12-07T07:32:23.541Z,87.64
2018-12-07T07:33:23.956Z,87.83
2018-12-07T07:34:24.449Z,87.58
2018-12-07T07:35:24.838Z,87.86
2018-12-07T07:36:25.147Z,87.92
2018-12-07T07:37:25.336Z,87.88
2018-12-07T07:38:26.062Z,87.82
2018-12-07T07:39:26.427Z,87.68
2018-12-07T07:40:26.684Z,88.04
2018-12-07T07:41:28.025Z,88.02
2018-12-07T07:42:27.517Z,88.20
2018-12-07T07:43:26.672Z,87.93
2018-12-07T07:44:28.183Z,87.86
2018-12-07T07:45:28.573Z,87.83
2018-12-07T07:46:28.854Z,87.98
2018-12-07T07:47:29.171Z,88.17
2018-12-07T07:48:29.587Z,87.48
2018-12-07T07:49:30.215Z,87.56
2018-12-07T07:50:30.514Z,87.41
2018-12-07T07:51:30.817Z,87.60
2018-12-07T07:52:31.272Z,87.83
2018-12-07T07:53:31.602Z,87.48
2018-12-07T07:54:31.970Z,87.26
2018-12-07T07:55:32.269Z,87.37
2018-12-07T07:56:32.593Z,87.42
2018-12-07T07:56:40.630Z,87.81
2018-12-07T07:57:41.885Z,87.83
2018-12-07T07:58:42.251Z,87.58
2018-12-07T07:59:42.678Z,87.76
2018-12-07T08:00:42.944Z,87.88
2018-12-07T08:01:43.224Z,88.04
2018-12-07T08:02:43.639Z,88.39
2018-12-07T08:03:43.954Z,88.45
2018-12-07T08:04:44.235Z,87.71
2018-12-07T08:05:44.598Z,87.58
2018-12-07T08:06:44.966Z,87.73
2018-12-07T08:07:45.731Z,87.99
2018-12-07T08:08:46.094Z,88.08
2018-12-07T08:09:46.449Z,87.85
2018-12-07T08:10:48.055Z,87.67
2018-12-07T08:11:47.523Z,88.09
2018-12-07T08:12:47.824Z,88.16
2018-12-07T08:13:48.180Z,88.11
2018-12-07T08:14:48.515Z,88.35
2018-12-07T08:15:49.064Z,88.35
2018-12-07T08:16:49.307Z,88.38
2018-12-07T08:17:49.640Z,88.55
2018-12-07T08:18:49.994Z,88.68
2018-12-07T08:19:50.643Z,88.85
2018-12-07T08:20:50.908Z,88.93
2018-12-07T08:21:51.260Z,89.22
2018-12-07T08:22:51.576Z,89.19
2018-12-07T08:23:51.854Z,89.42
2018-12-07T08:24:52.400Z,89.22
2018-12-07T08:25:52.782Z,89.30
2018-12-07T08:26:53.189Z,89.33
2018-12-07T08:27:53.767Z,89.55
2018-12-07T08:28:54.701Z,89.55
2018-12-07T08:29:54.997Z,89.46
2018-12-07T08:30:55.311Z,89.71
2018-12-07T08:31:55.701Z,89.82
2018-12-07T08:32:56.005Z,89.97
2018-12-07T08:33:56.528Z,89.81
2018-12-07T08:34:56.794Z,90.07
2018-12-07T08:35:57.504Z,90.01
2018-12-07T08:36:57.869Z,89.89
2018-12-07T08:37:58.255Z,89.79
2018-12-07T08:38:58.597Z,89.77
2018-12-07T08:39:58.876Z,90.03
2018-12-07T08:40:59.135Z,90.02
2018-12-07T08:42:06.539Z,90.08
2018-12-07T08:42:07.765Z,90.37
2018-12-07T08:43:09.346Z,90.42
2018-12-07T08:44:09.736Z,90.55
2018-12-07T08:45:10.059Z,90.76
2018-12-07T08:46:10.425Z,90.67
2018-12-07T08:47:10.722Z,90.68
2018-12-07T08:48:11.059Z,90.85
2018-12-07T08:49:11.580Z,91.16
2018-12-07T08:50:10.819Z,90.79
2018-12-07T08:51:12.180Z,91.11
2018-12-07T08:52:12.727Z,91.43
2018-12-07T08:53:13.381Z,91.36
2018-12-07T08:54:13.742Z,91.32
2018-12-07T08:55:14.218Z,91.22
2018-12-07T08:56:14.636Z,91.17
2018-12-07T08:57:14.927Z,91.12
2018-12-07T08:58:15.194Z,91.31
2018-12-07T08:59:15.552Z,90.98
2018-12-07T09:00:16.009Z,91.02
2018-12-07T09:01:16.573Z,91.00
2018-12-07T09:02:17.128Z,91.32
2018-12-07T09:03:17.514Z,91.05
2018-12-07T09:04:18.076Z,91.06
2018-12-07T09:05:17.628Z,91.27
2018-12-07T09:06:18.972Z,91.38
2018-12-07T09:07:19.477Z,91.09
2018-12-07T09:08:19.808Z,90.85
2018-12-07T09:09:20.166Z,90.90
2018-12-07T09:10:20.594Z,90.97
2018-12-07T09:11:20.887Z,91.28
2018-12-07T09:12:21.284Z,91.26
2018-12-07T09:13:21.591Z,91.34
2018-12-07T09:14:22.007Z,91.58
2018-12-07T09:15:22.370Z,91.31
2018-12-07T09:16:21.703Z,91.17
2018-12-07T09:17:23.103Z,91.51
2018-12-07T09:18:23.673Z,91.12
2018-12-07T09:19:22.980Z,91.08
2018-12-07T09:20:26.545Z,91.00
2018-12-07T09:21:24.236Z,91.14
2018-12-07T09:22:25.656Z,91.37
2018-12-07T09:23:26.505Z,91.26
2018-12-07T09:24:27.045Z,91.55
2018-12-07T09:25:27.492Z,91.61
2018-12-07T09:26:27.887Z,91.30
2018-12-07T09:27:28.233Z,91.46
2018-12-07T09:28:28.940Z,91.46
2018-12-07T09:29:29.292Z,91.79
2018-12-07T09:29:37.702Z,91.96
2018-12-07T09:30:38.492Z,91.93
2018-12-07T09:31:38.910Z,92.01
2018-12-07T09:32:39.759Z,92.25
2018-12-07T09:33:40.083Z,92.37
2018-12-07T09:34:40.389Z,92.05
2018-12-07T09:35:40.836Z,92.28
2018-12-07T09:36:42.392Z,92.24
2018-12-07T09:37:41.871Z,92.50
2018-12-07T09:38:42.348Z,92.28
2018-12-07T09:39:42.908Z,92.12
2018-12-07T09:40:43.122Z,92.39
2018-12-07T09:41:43.389Z,92.40
2018-12-07T09:42:43.911Z,92.66
2018-12-07T09:43:44.285Z,92.55
2018-12-07T09:44:44.498Z,92.63
2018-12-07T09:45:44.788Z,92.55
2018-12-07T09:46:45.273Z,92.22
2018-12-07T09:47:45.592Z,91.61
2018-12-07T09:48:46.003Z,91.91
2018-12-07T09:49:46.744Z,92.18
2018-12-07T09:50:47.096Z,91.60
2018-12-07T09:51:47.419Z,91.89
2018-12-07T09:52:47.908Z,91.99
2018-12-07T09:53:48.192Z,91.90
2018-12-07T09:54:48.395Z,91.37
2018-12-07T09:55:48.775Z,91.52
2018-12-07T09:56:49.271Z,91.67
2018-12-07T09:57:49.486Z,91.62
2018-12-07T09:58:49.809Z,91.34
2018-12-07T09:59:50.597Z,91.52
2018-12-07T10:00:51.026Z,91.27
2018-12-07T10:01:51.885Z,91.22
2018-12-07T10:02:52.399Z,91.00
2018-12-07T10:03:52.869Z,91.20
2018-12-07T10:04:53.271Z,90.77
2018-12-07T10:05:53.618Z,90.65
2018-12-07T10:06:53.956Z,90.65
2018-12-07T10:07:54.283Z,90.03
2018-12-07T10:08:54.579Z,90.16
2018-12-07T10:09:54.929Z,90.28
2018-12-07T10:10:55.429Z,90.38
2018-12-07T10:11:55.649Z,90.80
2018-12-07T10:12:56.081Z,90.12
2018-12-07T10:13:56.423Z,90.36
2018-12-07T10:14:04.745Z,90.33
2018-12-07T10:15:06.029Z,90.29
2018-12-07T10:16:06.470Z,90.26
2018-12-07T10:17:06.826Z,89.78
2018-12-07T10:18:07.275Z,89.46
2018-12-07T10:19:07.872Z,89.60
2018-12-07T10:20:08.375Z,89.24
2018-12-07T10:21:08.976Z,89.50
2018-12-07T10:22:09.894Z,89.36
2018-12-07T10:23:10.179Z,89.36
2018-12-07T10:24:10.965Z,89.44
2018-12-07T10:25:11.135Z,89.81
2018-12-07T10:26:11.529Z,89.40
2018-12-07T10:27:11.927Z,89.25
2018-12-07T10:28:12.397Z,89.33
2018-12-07T10:29:12.754Z,89.33
2018-12-07T10:30:12.973Z,89.45
2018-12-07T10:31:13.652Z,89.59
2018-12-07T10:32:14.036Z,89.46
2018-12-07T10:33:14.233Z,89.16
2018-12-07T10:34:14.543Z,89.54
2018-12-07T10:35:14.774Z,88.95
2018-12-07T10:36:15.334Z,88.94
2018-12-07T10:37:15.789Z,88.95
2018-12-07T10:38:16.136Z,88.76
2018-12-07T10:39:16.388Z,88.87
2018-12-07T10:40:16.707Z,89.25
2018-12-07T10:41:16.966Z,89.40
2018-12-07T10:42:17.248Z,88.78
2018-12-07T10:43:17.615Z,88.94
2018-12-07T10:44:18.167Z,89.10
2018-12-07T10:45:19.483Z,89.34
2018-12-07T10:46:18.858Z,88.96
2018-12-07T10:47:19.091Z,88.73
2018-12-07T10:48:19.304Z,89.12
2018-12-07T10:49:20.335Z,89.09
2018-12-07T10:50:20.674Z,88.65
2018-12-07T10:51:21.004Z,88.34
2018-12-07T10:52:21.631Z,88.25
2018-12-07T10:53:21.924Z,88.20
2018-12-07T10:54:22.560Z,88.13
2018-12-07T10:55:22.885Z,88.10
2018-12-07T10:56:23.125Z,88.15
2018-12-07T10:57:23.378Z,88.56
2018-12-07T10:58:23.635Z,88.14
2018-12-07T10:58:31.997Z,87.72
2018-12-07T10:59:33.274Z,87.72
2018-12-07T11:00:33.566Z,87.82
2018-12-07T11:01:33.828Z,87.97
2018-12-07T11:02:34.453Z,87.99
2018-12-07T11:03:34.924Z,87.92
2018-12-07T11:04:35.199Z,87.86
2018-12-07T11:05:35.538Z,87.77
2018-12-07T11:06:35.945Z,87.70
2018-12-07T11:07:36.353Z,88.11
2018-12-07T11:08:36.915Z,88.13
2018-12-07T11:09:37.216Z,87.63
2018-12-07T11:10:37.725Z,87.70
2018-12-07T11:11:38.226Z,87.64
2018-12-07T11:12:37.778Z,87.33
2018-12-07T11:13:39.331Z,87.55
2018-12-07T11:14:39.868Z,87.34
2018-12-07T11:15:40.162Z,87.24
2018-12-07T11:16:40.729Z,87.05
2018-12-07T11:17:41.163Z,87.22
2018-12-07T11:18:41.622Z,87.35
2018-12-07T11:19:42.237Z,87.14
2018-12-07T11:20:43.115Z,87.29
2018-12-07T11:21:43.571Z,86.94
2018-12-07T11:22:44.450Z,87.10
2018-12-07T11:23:45.020Z,87.25
2018-12-07T11:24:45.248Z,87.33
2018-12-07T11:25:45.482Z,87.15
2018-12-07T11:26:45.985Z,87.34
2018-12-07T11:27:46.231Z,87.35
2018-12-07T11:28:46.784Z,87.07
2018-12-07T11:29:47.398Z,87.11
2018-12-07T11:30:47.925Z,87.20
2018-12-07T11:31:47.215Z,87.29
2018-12-07T11:32:48.877Z,86.67
2018-12-07T11:33:49.347Z,86.57
2018-12-07T11:34:49.790Z,86.92
2018-12-07T11:35:50.061Z,86.63
2018-12-07T11:36:50.504Z,86.63
2018-12-07T11:37:49.715Z,86.30
2018-12-07T11:38:51.037Z,86.78
2018-12-07T11:39:51.367Z,86.10
2018-12-07T11:40:51.621Z,86.02
2018-12-07T11:41:51.965Z,86.50
2018-12-07T11:42:52.516Z,86.49
2018-12-07T11:43:52.862Z,86.03
2018-12-07T11:44:53.403Z,86.45
2018-12-07T11:45:53.714Z,85.85
2018-12-07T11:46:02.036Z,85.75
2018-12-07T11:47:03.081Z,85.76
2018-12-07T11:48:03.384Z,85.91
2018-12-07T11:49:03.714Z,85.90
2018-12-07T11:50:04.200Z,85.97
2018-12-07T11:51:04.656Z,85.99
2018-12-07T11:52:04.925Z,85.72
2018-12-07T11:53:05.752Z,85.56
2018-12-07T11:54:06.254Z,85.85
2018-12-07T11:55:06.554Z,85.45
2018-12-07T11:56:06.885Z,85.42
2018-12-07T11:57:07.428Z,85.24
2018-12-07T11:58:07.865Z,85.45
2018-12-07T11:59:08.615Z,85.76
2018-12-07T12:00:08.656Z,85.60
2018-12-07T12:01:08.961Z,85.70
2018-12-07T12:02:09.340Z,85.88
2018-12-07T12:03:09.735Z,85.90
2018-12-07T12:04:10.126Z,85.68
2018-12-07T12:05:10.877Z,85.34
2018-12-07T12:06:11.205Z,85.48
2018-12-07T12:07:11.687Z,85.43
2018-12-07T12:08:12.118Z,85.37
2018-12-07T12:09:12.678Z,85.55
2018-12-07T12:10:12.994Z,85.60
2018-12-07T12:11:13.472Z,85.84
2018-12-07T12:12:13.988Z,85.47
2018-12-07T12:13:14.316Z,85.47
2018-12-07T12:14:14.612Z,85.77
2018-12-07T12:15:15.078Z,85.21
2018-12-07T12:16:15.417Z,85.43
2018-12-07T12:17:15.755Z,85.29
2018-12-07T12:18:16.133Z,85.23
2018-12-07T12:19:16.416Z,85.62
2018-12-07T12:20:15.750Z,85.53
2018-12-07T12:21:17.075Z,85.64
2018-12-07T12:22:17.317Z,85.54
2018-12-07T12:23:17.668Z,85.56
2018-12-07T12:24:18.551Z,85.36
2018-12-07T12:25:19.214Z,85.70
2018-12-07T12:26:19.722Z,85.69
2018-12-07T12:27:20.281Z,85.49
2018-12-07T12:28:20.614Z,85.60
2018-12-07T12:29:21.024Z,85.37
2018-12-07T12:30:21.394Z,85.54
2018-12-07T12:31:21.946Z,85.56
2018-12-07T12:31:30.244Z,85.37
2018-12-07T12:32:31.515Z,85.36
2018-12-07T12:33:31.960Z,85.66
2018-12-07T12:34:32.473Z,85.51
2018-12-07T12:35:32.905Z,85.84
2018-12-07T12:36:33.297Z,85.39
2018-12-07T12:37:33.797Z,85.82
2018-12-07T12:38:34.051Z,84.80
2018-12-07T12:39:34.386Z,84.92
2018-12-07T12:40:34.786Z,84.86
2018-12-07T12:41:35.187Z,84.72
2018-12-07T12:42:35.548Z,84.66
2018-12-07T12:43:35.591Z,85.09